Time;durP1;ratioP1;P1;durP2;ratioP2;P2;SDS_P1;SDS_P2;PMS_P1;PMS_P2;Temp;Humidity;BMP_temperature;BMP_pressure;BME280_temperature;BME280_humidity;BME280_pressure;Samples;Min_cycle;Max_cycle;Signal;HPM_P1;HPM_P2
2021/01/12 00:04:47;;;;;;;22.08;9.95;;;;;;;5.46;85.50;99683.91;8777526;33;20198;-74
2021/01/12 00:09:51;;;;;;;24.70;12.30;;;;;;;5.52;85.82;99675.59;8776865;33;20248;-74
2021/01/12 00:14:53;;;;;;;16.98;8.43;;;;;;;5.51;85.58;99666.78;8778546;33;20190;-74
2021/01/12 00:19:57;;;;;;;21.03;10.83;;;;;;;5.68;84.83;99647.25;8777966;33;20150;-74
2021/01/12 00:24:59;;;;;;;20.23;8.47;;;;;;;5.65;85.49;99635.97;8776171;33;20756;-75
2021/01/12 00:30:04;;;;;;;13.38;7.80;;;;;;;5.57;85.55;99625.84;8778094;33;20175;-74
2021/01/12 00:35:10;;;;;;;16.52;8.32;;;;;;;5.51;85.99;99620.88;8777556;33;20746;-74
2021/01/12 00:40:13;;;;;;;19.65;9.48;;;;;;;5.65;85.76;99614.75;8777646;33;21645;-74
2021/01/12 00:45:15;;;;;;;24.77;13.13;;;;;;;5.66;85.57;99622.63;8777401;33;20226;-74
2021/01/12 00:50:19;;;;;;;20.98;10.02;;;;;;;5.70;85.72;99610.06;8776649;33;20183;-74
2021/01/12 00:55:21;;;;;;;18.60;9.80;;;;;;;5.54;86.28;99607.47;8776877;33;20270;-74
2021/01/12 01:00:24;;;;;;;14.20;8.18;;;;;;;5.48;85.63;99571.56;8777015;33;20436;-74
2021/01/12 01:05:27;;;;;;;13.25;5.53;;;;;;;5.78;85.31;99590.09;8777054;33;20276;-74
2021/01/12 01:10:30;;;;;;;14.18;8.30;;;;;;;5.54;85.65;99587.13;8776786;33;20377;-74
2021/01/12 01:15:32;;;;;;;18.25;9.38;;;;;;;5.61;86.08;99581.47;8776761;33;20178;-74
2021/01/12 01:20:35;;;;;;;10.88;6.20;;;;;;;5.61;85.78;99561.09;8776039;33;20223;-73
2021/01/12 01:25:38;;;;;;;8.25;5.15;;;;;;;5.48;86.23;99566.25;8776978;33;20193;-74
2021/01/12 01:30:40;;;;;;;18.05;9.85;;;;;;;5.67;85.92;99552.78;8776662;33;20155;-73
2021/01/12 01:35:44;;;;;;;16.58;8.82;;;;;;;5.73;85.63;99555.09;8777048;33;20178;-74
2021/01/12 01:40:46;;;;;;;16.67;9.37;;;;;;;5.91;85.18;99544.31;8776195;33;20630;-73
2021/01/12 01:45:49;;;;;;;17.08;10.20;;;;;;;5.74;85.86;99543.53;8775519;33;20736;-75
2021/01/12 01:50:53;;;;;;;14.68;9.13;;;;;;;5.88;85.29;99533.88;8775672;33;20473;-74
2021/01/12 01:55:59;;;;;;;17.55;10.23;;;;;;;5.86;85.61;99538.44;8775464;33;20148;-73
2021/01/12 02:01:02;;;;;;;9.40;5.22;;;;;;;5.65;85.71;99544.09;8774956;33;20225;-73
2021/01/12 02:06:13;;;;;;;11.50;6.10;;;;;;;5.89;85.15;99522.31;8775637;33;20281;-73
2021/01/12 02:11:16;;;;;;;14.65;7.82;;;;;;;5.66;86.07;99521.94;8774987;33;20665;-73
2021/01/12 02:16:18;;;;;;;16.75;10.00;;;;;;;5.62;86.21;99511.59;8774818;33;20271;-73
2021/01/12 02:21:23;;;;;;;13.93;7.07;;;;;;;5.69;86.07;99510.31;8775084;33;20319;-74
2021/01/12 02:26:27;;;;;;;13.05;6.68;;;;;;;5.75;85.82;99473.66;8775088;33;20238;-73
2021/01/12 02:31:30;;;;;;;14.07;8.07;;;;;;;5.73;86.33;99474.69;8810686;33;20165;-73
2021/01/12 02:36:34;;;;;;;12.27;6.78;;;;;;;5.78;86.30;99477.91;8812090;33;20190;-73
2021/01/12 02:41:37;;;;;;;19.27;9.25;;;;;;;5.91;85.85;99464.78;8777868;33;20281;-74
2021/01/12 02:46:40;;;;;;;19.00;9.23;;;;;;;5.90;85.81;99445.38;8774539;33;21460;-74
2021/01/12 02:51:42;;;;;;;11.63;5.65;;;;;;;5.96;85.74;99436.22;8773088;33;20151;-73
2021/01/12 02:56:45;;;;;;;18.75;9.88;;;;;;;6.06;85.50;99432.03;8775193;33;20193;-74
2021/01/12 03:01:48;;;;;;;17.83;9.32;;;;;;;6.08;85.46;99421.31;8773015;33;21250;-74
2021/01/12 03:06:50;;;;;;;19.05;9.77;;;;;;;6.21;85.06;99409.81;8774622;33;20590;-74
2021/01/12 03:11:53;;;;;;;17.95;8.93;;;;;;;6.09;85.55;99386.75;8772716;33;20222;-73
2021/01/12 03:16:56;;;;;;;8.50;5.57;;;;;;;6.00;86.09;99384.69;8773094;33;20134;-74
2021/01/12 03:21:58;;;;;;;8.60;4.07;;;;;;;5.96;85.87;99376.06;8773934;33;20217;-75
2021/01/12 03:27:01;;;;;;;13.00;6.85;;;;;;;6.02;85.65;99372.19;8773701;33;20253;-75
2021/01/12 03:32:05;;;;;;;13.88;7.22;;;;;;;6.10;85.48;99371.69;8773917;33;20243;-74
2021/01/12 03:37:08;;;;;;;14.20;7.82;;;;;;;6.21;84.99;99353.28;8773523;33;20182;-74
2021/01/12 03:42:11;;;;;;;12.52;7.40;;;;;;;6.10;85.09;99345.19;8773159;33;20995;-74
2021/01/12 03:47:14;;;;;;;12.30;7.07;;;;;;;6.03;85.66;99334.09;8773262;33;20516;-74
2021/01/12 03:52:16;;;;;;;13.75;7.40;;;;;;;5.96;85.97;99332.81;8773151;33;20167;-74
2021/01/12 03:57:19;;;;;;;11.07;7.00;;;;;;;6.11;85.23;99318.53;8773420;33;21791;-74
2021/01/12 04:02:22;;;;;;;7.88;5.00;;;;;;;6.06;85.22;99310.06;8778026;33;20457;-75
2021/01/12 04:07:28;;;;;;;9.27;5.65;;;;;;;5.76;86.01;99305.75;8778130;33;20663;-74
2021/01/12 04:12:31;;;;;;;12.00;6.80;;;;;;;5.94;85.99;99306.38;8777697;33;20186;-73
2021/01/12 04:17:34;;;;;;;8.52;5.70;;;;;;;5.89;85.82;99286.41;8777689;33;20151;-74
2021/01/12 04:22:37;;;;;;;10.65;6.53;;;;;;;6.05;85.23;99273.03;8777303;33;20418;-74
2021/01/12 04:27:40;;;;;;;11.98;6.50;;;;;;;6.01;85.76;99272.38;8777837;33;20234;-74
2021/01/12 04:32:42;;;;;;;11.75;6.50;;;;;;;6.22;85.70;99259.50;8777111;33;20234;-74
2021/01/12 04:37:45;;;;;;;6.78;4.97;;;;;;;6.13;85.28;99255.66;8776841;33;20570;-74
2021/01/12 04:42:48;;;;;;;13.15;6.82;;;;;;;6.15;85.21;99247.63;8776897;33;20653;-74
2021/01/12 04:47:51;;;;;;;10.38;6.55;;;;;;;6.22;84.79;99252.38;8776914;33;21554;-75
2021/01/12 04:52:53;;;;;;;10.00;5.43;;;;;;;6.03;85.38;99228.03;8776314;33;20245;-74
2021/01/12 04:57:57;;;;;;;10.15;5.25;;;;;;;6.03;85.64;99219.25;8776439;33;20389;-74
2021/01/12 05:03:00;;;;;;;7.30;5.03;;;;;;;5.98;85.50;99225.72;8776367;33;20135;-74
2021/01/12 05:08:06;;;;;;;8.15;4.85;;;;;;;5.93;85.67;99208.38;8776310;33;20650;-73
2021/01/12 05:13:11;;;;;;;7.65;4.47;;;;;;;6.04;85.34;99210.34;8749941;33;20248;-73
2021/01/12 05:18:17;;;;;;;7.95;5.18;;;;;;;6.18;84.85;99184.59;8776422;33;20919;-74
2021/01/12 05:23:24;;;;;;;8.30;4.68;;;;;;;6.03;85.29;99185.63;8775928;33;20158;-74
2021/01/12 05:28:31;;;;;;;8.25;4.32;;;;;;;6.03;85.80;99177.66;8777209;33;20849;-74
2021/01/12 05:33:34;;;;;;;7.70;5.05;;;;;;;6.13;85.20;99178.75;8776147;33;20151;-74
2021/01/12 05:38:37;;;;;;;13.70;5.55;;;;;;;6.29;85.07;99167.97;8776281;33;20744;-74
2021/01/12 05:43:44;;;;;;;8.52;6.18;;;;;;;6.29;85.22;99165.31;8776249;33;21954;-74
2021/01/12 05:48:47;;;;;;;8.32;5.72;;;;;;;6.43;84.57;99161.69;8775627;33;20194;-74
2021/01/12 05:54:30;;;;;;;9.98;5.88;;;;;;;6.32;85.56;99150.97;8774904;33;20259;-75
2021/01/12 05:59:35;;;;;;;7.85;5.25;;;;;;;6.51;84.76;99143.44;8775022;33;20178;-74
2021/01/12 06:04:38;;;;;;;13.70;7.07;;;;;;;6.59;84.97;99143.75;8774517;33;20182;-72
2021/01/12 06:09:40;;;;;;;12.02;6.60;;;;;;;6.58;85.04;99144.72;8775759;33;20163;-73
2021/01/12 06:14:51;;;;;;;11.15;6.50;;;;;;;6.58;84.98;99142.06;8775415;33;20297;-73
2021/01/12 06:20:04;;;;;;;10.52;5.90;;;;;;;6.43;86.04;99133.34;8773649;33;20289;-73
2021/01/12 06:25:09;;;;;;;14.63;7.40;;;;;;;6.59;85.94;99125.19;8749952;33;20282;-73
2021/01/12 06:30:15;;;;;;;15.68;8.02;;;;;;;6.84;85.73;99136.72;8775992;33;20193;-74
2021/01/12 06:35:17;;;;;;;12.20;7.30;;;;;;;6.83;85.74;99121.75;8775057;33;20147;-73
2021/01/12 06:40:21;;;;;;;13.60;7.40;;;;;;;6.87;86.05;99134.69;8762221;33;20688;-73
2021/01/12 06:45:25;;;;;;;9.55;5.10;;;;;;;6.95;85.76;99115.56;8774666;33;20178;-73
2021/01/12 06:50:31;;;;;;;10.55;6.93;;;;;;;6.96;86.54;99113.75;8774929;33;20222;-73
2021/01/12 06:55:34;;;;;;;11.98;6.68;;;;;;;7.13;86.07;99116.88;8774786;33;20441;-74
2021/01/12 07:00:38;;;;;;;7.85;4.95;;;;;;;7.08;86.45;99139.44;8773922;33;20922;-72
2021/01/12 07:05:43;;;;;;;11.80;6.03;;;;;;;7.05;86.96;99110.44;8774595;33;20712;-75
2021/01/12 07:10:46;;;;;;;12.48;7.47;;;;;;;7.43;85.79;99101.44;8776412;33;20265;-72
2021/01/12 07:15:50;;;;;;;14.52;8.00;;;;;;;7.20;86.76;99105.81;8774697;33;20298;-73
2021/01/12 07:21:06;;;;;;;13.18;8.10;;;;;;;7.44;85.94;99108.47;8806895;33;20349;-73
2021/01/12 07:26:15;;;;;;;12.70;7.68;;;;;;;7.50;85.76;99105.34;8797534;33;20227;-73
2021/01/12 07:31:27;;;;;;;12.05;6.60;;;;;;;7.55;86.01;99113.81;8777580;33;20744;-72
2021/01/12 07:36:34;;;;;;;10.55;5.68;;;;;;;7.54;85.99;99107.66;8779676;33;20152;-75
2021/01/12 07:41:37;;;;;;;11.60;6.85;;;;;;;7.62;86.39;99123.03;8776981;33;20572;-74
2021/01/12 07:46:41;;;;;;;11.32;6.15;;;;;;;7.27;86.84;99123.00;8777812;33;21240;-74
2021/01/12 07:51:45;;;;;;;7.10;4.68;;;;;;;7.33;86.69;99117.22;8779583;33;20146;-73
2021/01/12 07:56:47;;;;;;;7.03;4.07;;;;;;;7.37;86.51;99118.69;8778982;33;20183;-74
2021/01/12 08:01:50;;;;;;;8.35;5.25;;;;;;;7.32;86.38;99118.16;8778331;33;20278;-74
2021/01/12 08:06:53;;;;;;;4.45;3.55;;;;;;;7.40;86.03;99126.44;8778978;33;20147;-73
2021/01/12 08:12:01;;;;;;;5.93;3.22;;;;;;;7.31;86.23;99124.47;8737003;33;20497;-73
2021/01/12 08:17:05;;;;;;;5.25;2.83;;;;;;;7.30;86.04;99128.94;8696686;33;20423;-72
2021/01/12 08:22:09;;;;;;;3.13;2.30;;;;;;;7.31;86.04;99127.13;8719264;33;20428;-74
2021/01/12 08:27:12;;;;;;;3.75;2.60;;;;;;;7.37;86.15;99120.50;8717948;33;20183;-73
2021/01/12 08:32:22;;;;;;;4.00;2.80;;;;;;;7.58;85.29;99119.75;8719055;33;20694;-72
2021/01/12 08:37:26;;;;;;;4.38;3.25;;;;;;;7.61;85.43;99123.16;8694523;33;20156;-74
2021/01/12 08:42:31;;;;;;;4.97;2.90;;;;;;;7.66;85.32;99129.81;8717573;33;20447;-72
2021/01/12 08:47:35;;;;;;;4.82;2.92;;;;;;;7.72;85.64;99128.50;8718189;33;20265;-72
2021/01/12 08:52:52;;;;;;;4.15;2.67;;;;;;;7.63;85.71;99130.06;8717396;33;20195;-71
2021/01/12 08:57:56;;;;;;;3.45;2.65;;;;;;;7.77;85.56;99139.66;8725192;33;20459;-73
2021/01/12 09:03:01;;;;;;;4.82;3.40;;;;;;;7.71;85.70;99145.44;8775967;33;20230;-72
2021/01/12 09:08:05;;;;;;;5.30;3.25;;;;;;;7.50;86.50;99150.53;8777899;33;20301;-72
2021/01/12 09:13:08;;;;;;;5.68;3.00;;;;;;;7.54;86.73;99141.34;8778590;33;20189;-71
2021/01/12 09:18:19;;;;;;;3.97;3.05;;;;;;;7.67;86.31;99146.63;8774791;33;20194;-71
2021/01/12 09:23:22;;;;;;;5.32;3.90;;;;;;;7.66;86.46;99143.13;8777765;33;20703;-73
2021/01/12 09:28:28;;;;;;;4.47;2.50;;;;;;;7.80;85.99;99147.41;8773080;33;20182;-73
2021/01/12 09:33:31;;;;;;;2.97;1.83;;;;;;;7.84;86.04;99154.16;8777012;33;20182;-73
2021/01/12 09:38:38;;;;;;;5.75;3.30;;;;;;;7.75;86.53;99154.88;8777318;33;20139;-73
2021/01/12 09:43:41;;;;;;;3.67;2.85;;;;;;;7.85;86.02;99161.19;8775603;33;20144;-73
2021/01/12 09:48:45;;;;;;;3.78;2.70;;;;;;;7.99;85.75;99158.34;8776914;33;20317;-73
2021/01/12 09:53:49;;;;;;;6.03;3.30;;;;;;;7.90;85.79;99166.16;8776961;33;20187;-73
2021/01/12 09:58:53;;;;;;;6.55;3.05;;;;;;;7.82;86.28;99166.75;8777506;33;20183;-73
2021/01/12 10:03:56;;;;;;;6.20;3.65;;;;;;;7.86;85.77;99184.16;8776743;33;21848;-73
2021/01/12 10:08:58;;;;;;;3.92;2.50;;;;;;;8.02;85.54;99215.78;8775344;33;20144;-73
2021/01/12 10:14:00;;;;;;;5.53;2.75;;;;;;;8.03;84.55;99225.44;8775045;33;20194;-73
2021/01/12 10:19:03;;;;;;;4.57;2.50;;;;;;;8.00;84.61;99231.84;8774868;33;20182;-73
2021/01/12 10:24:06;;;;;;;8.82;4.43;;;;;;;7.92;85.00;99234.22;8775355;33;20183;-73
2021/01/12 10:29:10;;;;;;;2.47;1.83;;;;;;;7.83;84.15;99250.88;8774958;33;20523;-73
2021/01/12 10:34:13;;;;;;;4.65;3.05;;;;;;;7.70;84.40;99255.38;8773370;33;20187;-72
2021/01/12 10:39:17;;;;;;;9.10;4.72;;;;;;;7.71;84.47;99273.03;8773456;33;20279;-72
2021/01/12 10:44:20;;;;;;;8.80;5.05;;;;;;;7.70;84.42;99290.78;8774643;33;20367;-73
2021/01/12 10:49:23;;;;;;;12.52;5.95;;;;;;;7.59;84.30;99290.72;8772026;33;20150;-73
2021/01/12 10:54:26;;;;;;;8.20;4.32;;;;;;;7.62;84.14;99295.81;8774736;33;20128;-71
2021/01/12 10:59:29;;;;;;;7.82;4.20;;;;;;;7.55;83.86;99314.00;8773931;33;20256;-71
2021/01/12 11:04:33;;;;;;;14.90;6.53;;;;;;;7.37;83.57;99315.31;8774530;33;20139;-71
2021/01/12 11:09:36;;;;;;;5.60;3.42;;;;;;;7.38;84.07;99321.47;8777395;33;20694;-71
2021/01/12 11:14:40;;;;;;;4.25;2.90;;;;;;;7.01;83.20;99319.56;8779800;33;20147;-71
2021/01/12 11:19:43;;;;;;;4.70;2.10;;;;;;;7.05;83.67;99326.38;8779177;33;20145;-73
2021/01/12 11:24:46;;;;;;;8.75;3.47;;;;;;;7.15;84.07;99341.69;8778640;33;20191;-70
2021/01/12 11:29:49;;;;;;;8.27;4.18;;;;;;;7.25;84.55;99342.75;8778642;33;20268;-72
2021/01/12 11:34:54;;;;;;;7.75;4.07;;;;;;;7.42;84.67;99353.03;8779585;33;20163;-72
2021/01/12 11:39:56;;;;;;;6.70;2.75;;;;;;;7.57;84.20;99348.47;8780177;33;20139;-71
2021/01/12 11:44:59;;;;;;;3.53;2.15;;;;;;;7.67;84.42;99361.94;8779832;33;20155;-71
2021/01/12 11:50:08;;;;;;;6.22;2.95;;;;;;;7.46;83.44;99353.66;8779033;33;20183;-71
2021/01/12 11:55:12;;;;;;;4.68;2.00;;;;;;;7.13;82.76;99363.06;8778503;33;21231;-71
2021/01/12 12:00:16;;;;;;;4.43;1.90;;;;;;;7.32;82.66;99368.78;8776677;33;20281;-71
2021/01/12 12:05:19;;;;;;;6.00;1.92;;;;;;;7.41;83.48;99367.28;8784638;33;20715;-71
2021/01/12 12:10:21;;;;;;;7.13;2.10;;;;;;;7.55;83.17;99361.84;8791336;33;20589;-71
2021/01/12 12:15:25;;;;;;;3.17;1.60;;;;;;;7.67;82.52;99369.91;8779050;33;21992;-70
2021/01/12 12:20:29;;;;;;;7.72;1.95;;;;;;;7.61;82.25;99379.16;8777363;33;20275;-70
2021/01/12 12:25:32;;;;;;;5.70;1.95;;;;;;;7.66;80.61;99381.53;8754365;33;20522;-70
2021/01/12 12:30:38;;;;;;;6.00;2.17;;;;;;;7.85;81.08;99378.41;8777395;33;20373;-70
2021/01/12 12:35:41;;;;;;;5.40;2.65;;;;;;;7.42;80.47;99378.78;8752409;33;20195;-70
2021/01/12 12:40:43;;;;;;;3.78;1.92;;;;;;;7.44;81.44;99383.03;8776650;33;20187;-70
2021/01/12 12:45:50;;;;;;;8.68;3.03;;;;;;;8.58;82.90;99388.16;8778356;33;20213;-71
2021/01/12 12:50:54;;;;;;;5.03;2.53;;;;;;;8.49;76.98;99395.03;8776536;33;21057;-71
2021/01/12 12:55:56;;;;;;;8.68;2.72;;;;;;;8.77;78.07;99401.78;8776458;33;20182;-70
2021/01/12 13:01:00;;;;;;;7.65;3.58;;;;;;;9.46;77.05;99401.88;8773746;33;20193;-70
2021/01/12 13:06:06;;;;;;;3.78;1.95;;;;;;;8.30;74.46;99407.94;8777125;33;20182;-72
2021/01/12 13:11:08;;;;;;;1.95;1.63;;;;;;;7.91;76.40;99405.41;8776342;33;20255;-72
2021/01/12 13:16:11;;;;;;;4.63;2.15;;;;;;;7.86;77.25;99410.19;8776986;33;20179;-72
2021/01/12 13:21:16;;;;;;;6.95;2.20;;;;;;;7.41;78.31;99423.09;8765893;33;20650;-72
2021/01/12 13:26:21;;;;;;;2.10;1.40;;;;;;;7.42;77.53;99432.75;8717354;33;20195;-72
2021/01/12 13:31:23;;;;;;;6.47;1.90;;;;;;;7.24;78.17;99436.66;8752019;33;20642;-71
2021/01/12 13:36:26;;;;;;;3.45;1.55;;;;;;;8.70;76.24;99431.69;8715980;33;20435;-71
2021/01/12 13:41:43;;;;;;;3.83;1.40;;;;;;;7.23;75.14;99441.13;8716537;33;20597;-72
2021/01/12 13:46:46;;;;;;;5.40;2.13;;;;;;;7.52;76.99;99447.13;8715697;33;20223;-71
2021/01/12 13:51:50;;;;;;;2.17;1.23;;;;;;;7.40;73.75;99457.75;8718378;33;20178;-74
2021/01/12 13:56:59;;;;;;;2.15;1.30;;;;;;;8.05;73.92;99462.09;8712161;33;20561;-71
2021/01/12 14:02:10;;;;;;;3.42;1.95;;;;;;;8.72;72.12;99478.53;8748017;33;20205;-71
2021/01/12 14:07:14;;;;;;;5.00;1.60;;;;;;;8.53;73.37;99481.69;8757741;33;20150;-71
2021/01/12 14:12:20;;;;;;;3.22;1.88;;;;;;;7.91;72.46;99489.66;8690067;33;20478;-70
2021/01/12 14:17:23;;;;;;;1.88;1.15;;;;;;;7.24;71.33;99495.13;8719569;33;20439;-71
2021/01/12 14:22:41;;;;;;;4.18;1.73;;;;;;;6.68;72.70;99489.97;8715969;33;20730;-72
2021/01/12 14:27:45;;;;;;;1.38;1.15;;;;;;;6.65;72.40;99509.59;8716634;33;20956;-72
2021/01/12 14:32:48;;;;;;;3.53;2.05;;;;;;;6.65;72.11;99528.16;8716111;33;20195;-71
2021/01/12 14:38:01;;;;;;;3.80;1.85;;;;;;;6.54;72.43;99520.03;8716211;33;20646;-70
2021/01/12 14:43:04;;;;;;;4.10;1.45;;;;;;;6.73;71.55;99540.09;8714461;33;20145;-71
2021/01/12 14:48:08;;;;;;;3.70;2.70;;;;;;;7.06;71.61;99532.59;8703851;33;21598;-70
2021/01/12 14:53:11;;;;;;;3.65;2.03;;;;;;;7.47;70.18;99542.25;8718365;33;20179;-71
2021/01/12 14:58:13;;;;;;;2.38;1.67;;;;;;;7.17;68.75;99547.81;8771478;33;20269;-70
2021/01/12 15:03:16;;;;;;;2.95;1.80;;;;;;;6.65;70.20;99562.66;8712556;33;20457;-70
2021/01/12 15:08:19;;;;;;;6.05;1.98;;;;;;;6.43;70.73;99572.94;8714974;33;20159;-69
2021/01/12 15:13:21;;;;;;;1.85;1.40;;;;;;;6.19;71.33;99564.69;8712850;33;20259;-71
2021/01/12 15:18:24;;;;;;;3.88;1.60;;;;;;;6.05;72.99;99576.16;8714123;33;21198;-70
2021/01/12 15:23:27;;;;;;;2.78;1.50;;;;;;;5.74;73.27;99579.78;8714418;33;20218;-71
2021/01/12 15:28:30;;;;;;;2.67;1.50;;;;;;;6.01;74.04;99602.03;8713786;33;20216;-70
2021/01/12 15:33:32;;;;;;;4.88;2.00;;;;;;;6.09;75.45;99621.91;8713587;33;20179;-72
2021/01/12 15:38:36;;;;;;;1.33;1.23;;;;;;;5.33;77.17;99623.66;8717549;33;20692;-70
2021/01/12 15:43:39;;;;;;;3.50;1.08;;;;;;;4.75;80.04;99640.16;8707936;33;21607;-70
2021/01/12 15:48:43;;;;;;;3.40;1.60;;;;;;;4.65;79.12;99642.44;8699482;33;20700;-70
2021/01/12 15:53:48;;;;;;;2.60;1.20;;;;;;;4.69;78.87;99653.72;8716706;33;20422;-70
2021/01/12 15:58:51;;;;;;;1.85;1.50;;;;;;;4.57;79.15;99671.09;8719688;33;20239;-71
2021/01/12 16:03:56;;;;;;;1.70;1.17;;;;;;;4.69;78.83;99677.53;8717502;33;20229;-70
2021/01/12 16:09:01;;;;;;;2.07;1.30;;;;;;;4.53;78.87;99692.53;8718984;33;20180;-69
2021/01/12 16:14:03;;;;;;;1.10;1.10;;;;;;;4.25;79.75;99701.91;8716647;33;20183;-70
2021/01/12 16:19:11;;;;;;;1.93;1.33;;;;;;;4.40;79.93;99702.88;8693053;33;20199;-70
2021/01/12 16:24:15;;;;;;;6.00;2.20;;;;;;;4.37;80.46;99711.84;8717800;33;20678;-70
2021/01/12 16:29:22;;;;;;;1.87;1.30;;;;;;;4.31;80.14;99704.22;8717030;33;20436;-71
2021/01/12 16:34:25;;;;;;;6.10;2.37;;;;;;;4.38;80.46;99724.13;8718408;33;20903;-70
2021/01/12 16:39:29;;;;;;;2.27;1.80;;;;;;;4.44;80.16;99726.47;8740891;33;20226;-70
2021/01/12 16:44:34;;;;;;;1.93;1.73;;;;;;;4.58;79.80;99730.16;8713392;33;22006;-71
2021/01/12 16:50:19;;;;;;;5.77;2.07;;;;;;;4.44;80.02;99738.81;8697144;33;20169;-70
2021/01/12 16:55:45;;;;;;;5.83;2.10;;;;;;;4.35;80.85;99749.88;8680857;33;20730;-71
2021/01/12 17:00:51;;;;;;;2.73;1.97;;;;;;;4.54;80.61;99766.50;8637662;33;20261;-70
2021/01/12 17:05:55;;;;;;;4.53;1.80;;;;;;;4.31;81.22;99769.50;8659665;33;20230;-70
2021/01/12 17:11:06;;;;;;;5.83;1.93;;;;;;;4.37;81.09;99787.69;8659144;33;20192;-73
2021/01/12 17:16:14;;;;;;;4.27;1.80;;;;;;;4.28;81.35;99783.72;8658713;33;20837;-70
2021/01/12 17:21:34;;;;;;;2.33;1.53;;;;;;;3.89;81.58;99799.75;8677288;33;20144;-70
2021/01/12 17:26:39;;;;;;;2.23;2.00;;;;;;;4.11;80.94;99807.47;8715179;33;20669;-73
2021/01/12 17:31:50;;;;;;;7.37;2.93;;;;;;;3.68;82.47;99796.38;8718163;33;20210;-70
2021/01/12 17:37:00;;;;;;;5.77;1.97;;;;;;;3.92;81.44;99818.09;8685889;33;20444;-72
2021/01/12 17:42:24;;;;;;;3.13;1.93;;;;;;;3.82;81.45;99828.28;8656547;33;21177;-72
2021/01/12 17:47:35;;;;;;;9.83;2.43;;;;;;;3.84;81.75;99844.91;8657339;33;20176;-72
2021/01/12 17:52:43;;;;;;;7.30;3.00;;;;;;;3.84;81.21;99849.31;8657995;33;20343;-72
2021/01/12 17:57:56;;;;;;;13.17;2.60;;;;;;;3.82;81.20;99846.75;8657053;33;20211;-72
2021/01/12 18:03:10;;;;;;;4.13;1.93;;;;;;;4.11;80.45;99850.63;8655915;33;20187;-71
2021/01/12 18:08:23;;;;;;;8.47;2.77;;;;;;;4.02;80.08;99880.16;8658681;33;20764;-71
2021/01/12 18:13:39;;;;;;;9.67;2.27;;;;;;;3.63;80.35;99880.25;8663155;33;20153;-71
2021/01/12 18:18:51;;;;;;;6.33;2.23;;;;;;;3.73;79.60;99885.06;8655107;33;20563;-72
2021/01/12 18:23:56;;;;;;;9.53;2.77;;;;;;;3.89;80.08;99885.16;8655464;33;20145;-71
2021/01/12 18:29:13;;;;;;;5.17;2.60;;;;;;;3.81;79.97;99887.31;8655569;33;20758;-70
2021/01/12 18:34:18;;;;;;;8.40;2.57;;;;;;;3.66;79.97;99898.63;8682432;33;20730;-70
2021/01/12 18:39:24;;;;;;;6.90;2.70;;;;;;;3.91;79.29;99908.91;8722181;33;20188;-70
2021/01/12 18:44:32;;;;;;;7.70;2.73;;;;;;;3.87;78.83;99908.19;8715135;33;20186;-71
2021/01/12 18:49:58;;;;;;;4.70;2.17;;;;;;;3.76;78.99;99899.91;8708112;33;20198;-70
2021/01/12 18:55:06;;;;;;;4.37;2.23;;;;;;;3.73;78.68;99915.88;8722060;33;20178;-70
2021/01/12 19:00:11;;;;;;;8.67;2.40;;;;;;;3.89;78.43;99924.81;8714149;33;20182;-70
2021/01/12 19:05:15;;;;;;;5.17;2.43;;;;;;;3.82;78.14;99931.31;8772425;33;20468;-71
2021/01/12 19:10:20;;;;;;;5.70;2.63;;;;;;;3.66;78.68;99940.88;8739845;33;20618;-71
2021/01/12 19:15:26;;;;;;;4.00;2.07;;;;;;;3.67;78.04;99951.38;8713978;33;20265;-71
2021/01/12 19:20:29;;;;;;;3.47;1.70;;;;;;;3.51;77.96;99953.88;8701532;33;20179;-71
2021/01/12 19:25:32;;;;;;;9.10;2.30;;;;;;;3.45;78.69;99950.63;8714497;33;20692;-71
2021/01/12 19:30:37;;;;;;;5.60;2.07;;;;;;;3.75;78.02;99972.16;8716165;33;20153;-71
2021/01/12 19:35:40;;;;;;;5.03;2.93;;;;;;;3.64;78.53;99975.28;8712356;33;20159;-70
2021/01/12 19:40:44;;;;;;;5.33;2.67;;;;;;;3.70;77.97;99972.38;8718823;33;20191;-71
2021/01/12 19:45:50;;;;;;;5.23;2.93;;;;;;;3.69;78.54;99980.38;8717940;33;21608;-71
2021/01/12 19:50:52;;;;;;;6.37;3.03;;;;;;;3.58;78.61;99991.41;8737294;33;20929;-70
2021/01/12 19:55:56;;;;;;;8.17;2.33;;;;;;;3.59;79.17;100000.19;8730993;33;21052;-70
2021/01/12 20:00:59;;;;;;;4.43;2.03;;;;;;;3.48;79.24;100000.66;8708910;33;20225;-70
2021/01/12 20:06:06;;;;;;;4.03;2.17;;;;;;;3.77;78.99;100005.50;8722196;33;20247;-70
2021/01/12 20:11:08;;;;;;;8.07;2.67;;;;;;;3.82;78.20;100020.31;8736128;33;20147;-71
2021/01/12 20:16:14;;;;;;;7.50;2.70;;;;;;;3.71;78.08;100029.56;8783464;33;20143;-70
2021/01/12 20:21:23;;;;;;;8.27;3.60;;;;;;;3.78;78.36;100032.78;8772563;33;20155;-71
2021/01/12 20:26:34;;;;;;;11.30;3.70;;;;;;;3.67;78.51;100043.84;8718465;33;20728;-70
2021/01/12 20:31:44;;;;;;;3.27;2.10;;;;;;;3.51;78.94;100056.88;8740293;33;20145;-71
2021/01/12 20:36:49;;;;;;;6.07;3.07;;;;;;;3.51;78.46;100058.63;8718247;33;20191;-72
2021/01/12 20:41:52;;;;;;;9.53;3.20;;;;;;;3.41;78.98;100063.47;8748064;33;20207;-71
2021/01/12 20:46:58;;;;;;;4.50;2.40;;;;;;;3.22;79.11;100078.34;8718289;33;21837;-71
2021/01/12 20:52:01;;;;;;;9.90;3.30;;;;;;;3.43;78.73;100082.75;8717893;33;20432;-71
2021/01/12 20:57:05;;;;;;;8.47;2.97;;;;;;;3.62;78.22;100085.47;8718155;33;20248;-71
2021/01/12 21:02:08;;;;;;;7.43;3.10;;;;;;;3.39;78.55;100091.72;8717542;33;20198;-71
2021/01/12 21:07:11;;;;;;;7.77;2.90;;;;;;;3.24;78.99;100092.38;8718079;33;20806;-71
2021/01/12 21:12:14;;;;;;;5.17;2.90;;;;;;;3.44;78.30;100110.00;8717470;33;20866;-71
2021/01/12 21:17:17;;;;;;;8.17;2.50;;;;;;;3.58;78.18;100114.72;8717816;33;20681;-71
2021/01/12 21:22:20;;;;;;;5.17;2.40;;;;;;;3.73;77.72;100114.03;8717837;33;21536;-71
2021/01/12 21:27:22;;;;;;;6.00;2.60;;;;;;;3.72;77.42;100112.34;8704490;33;20226;-72
2021/01/12 21:32:25;;;;;;;9.23;2.87;;;;;;;3.41;78.01;100116.28;8707679;33;20791;-71
2021/01/12 21:37:29;;;;;;;10.77;3.03;;;;;;;3.38;78.02;100120.84;8814605;33;20427;-71
2021/01/12 21:42:31;;;;;;;12.47;3.37;;;;;;;3.14;78.68;100114.78;8818247;33;20187;-72
2021/01/12 21:47:34;;;;;;;3.77;2.43;;;;;;;3.45;78.01;100127.56;8777836;33;20191;-71
2021/01/12 21:52:37;;;;;;;8.17;2.63;;;;;;;3.26;78.24;100123.06;8775486;33;20218;-71
2021/01/12 21:57:39;;;;;;;7.93;3.03;;;;;;;3.38;78.36;100126.13;8724097;33;21512;-71
2021/01/12 22:02:42;;;;;;;6.97;3.60;;;;;;;3.43;78.07;100134.69;8714481;33;21810;-71
2021/01/12 22:07:45;;;;;;;5.53;2.67;;;;;;;3.37;78.29;100135.81;8661841;33;20199;-70
2021/01/12 22:12:48;;;;;;;6.97;2.73;;;;;;;3.40;78.18;100142.75;8656764;33;20235;-71
2021/01/12 22:17:52;;;;;;;7.27;2.57;;;;;;;3.19;79.03;100149.78;8658037;33;20188;-71
2021/01/12 22:22:56;;;;;;;11.00;2.67;;;;;;;3.24;78.52;100161.00;8673646;33;20286;-71
2021/01/12 22:27:58;;;;;;;7.17;3.17;;;;;;;3.28;78.60;100160.81;8715479;33;20176;-71
2021/01/12 22:33:02;;;;;;;9.40;2.90;;;;;;;3.43;77.91;100164.63;8767331;33;20600;-71
2021/01/12 22:38:04;;;;;;;3.77;2.00;;;;;;;3.35;77.82;100174.63;8774411;33;20692;-71
2021/01/12 22:43:07;;;;;;;7.20;2.80;;;;;;;3.26;78.45;100177.63;8772353;33;20913;-71
2021/01/12 22:48:13;;;;;;;7.20;2.57;;;;;;;3.39;77.95;100183.28;8774505;33;20186;-71
2021/01/12 22:53:16;;;;;;;7.20;3.03;;;;;;;3.52;77.15;100192.44;8773693;33;20187;-70
2021/01/12 22:58:18;;;;;;;4.07;2.13;;;;;;;3.33;77.98;100206.38;8773818;33;20139;-70
2021/01/12 23:03:22;;;;;;;7.37;2.93;;;;;;;3.20;78.01;100212.19;8777179;33;20494;-70
2021/01/12 23:08:25;;;;;;;3.50;2.37;;;;;;;3.31;78.08;100199.44;8784016;33;20198;-71
2021/01/12 23:13:28;;;;;;;5.17;2.07;;;;;;;3.28;77.59;100197.78;8786934;33;20143;-69
2021/01/12 23:18:32;;;;;;;5.80;2.30;;;;;;;3.21;77.64;100212.16;8777948;33;20210;-71
2021/01/12 23:23:35;;;;;;;2.30;1.37;;;;;;;3.33;77.74;100197.59;8778599;33;20712;-72
2021/01/12 23:28:37;;;;;;;5.47;2.20;;;;;;;3.13;78.34;100206.31;8778917;33;20179;-70
2021/01/12 23:33:41;;;;;;;9.47;2.43;;;;;;;2.98;78.67;100214.81;8778484;33;20148;-70
2021/01/12 23:38:44;;;;;;;3.47;2.00;;;;;;;3.01;78.55;100217.34;8779398;33;20179;-70
2021/01/12 23:43:48;;;;;;;5.57;2.77;;;;;;;2.85;78.92;100209.13;8778042;33;20183;-69
2021/01/12 23:48:52;;;;;;;4.23;2.13;;;;;;;2.79;78.99;100218.13;8778501;33;20416;-72
2021/01/12 23:53:54;;;;;;;6.23;3.30;;;;;;;2.91;79.11;100216.84;8777050;33;20154;-69
2021/01/12 23:58:57;;;;;;;4.97;2.07;;;;;;;2.82;79.04;100227.72;8777597;33;20655;-70
